Time;durP1;ratioP1;P1;durP2;ratioP2;P2;SDS_P1;SDS_P2;PMS_P1;PMS_P2;Temp;Humidity;BMP_temperature;BMP_pressure;BME280_temperature;BME280_humidity;BME280_pressure;Samples;Min_cycle;Max_cycle;Signal;HPM_P1;HPM_P2
2022/12/29 00:00:00;;;;;;;4.13;1.83;;;9.80;84.30;;;;;;5064438;28;20448;-68
2022/12/29 00:02:25;;;;;;;4.93;1.73;;;9.80;84.30;;;;;;5066343;28;20073;-67
2022/12/29 00:04:51;;;;;;;7.82;1.63;;;9.80;84.20;;;;;;5061639;28;20029;-68
2022/12/29 00:07:17;;;;;;;4.75;1.83;;;9.90;84.10;;;;;;5067253;28;20099;-67
2022/12/29 00:09:43;;;;;;;4.65;1.60;;;9.90;83.90;;;;;;5064886;28;20036;-68
2022/12/29 00:12:08;;;;;;;4.47;1.35;;;10.00;83.90;;;;;;5061984;28;20425;-67
2022/12/29 00:17:18;;;;;;;3.80;1.67;;;10.00;83.90;;;;;;5058633;28;20044;-68
2022/12/29 00:36:22;;;;;;;4.80;1.80;;;10.00;83.80;;;;;;5041984;28;20091;-68
2022/12/29 00:44:27;;;;;;;7.45;2.47;;;10.00;83.70;;;;;;5045503;28;20079;-67
2022/12/29 00:46:53;;;;;;;4.82;1.73;;;10.00;83.50;;;;;;5042639;28;20895;-67
2022/12/29 00:49:30;;;;;;;6.70;1.70;;;10.10;83.50;;;;;;5047502;28;20141;-68
2022/12/29 00:52:08;;;;;;;5.57;2.03;;;10.10;83.90;;;;;;5047182;28;20028;-67
2022/12/29 00:54:36;;;;;;;8.07;1.80;;;10.10;83.60;;;;;;5048547;28;20626;-67
2022/12/29 00:57:04;;;;;;;4.95;1.63;;;10.10;83.50;;;;;;5065360;28;20021;-67
2022/12/29 00:59:29;;;;;;;7.35;1.70;;;10.20;83.20;;;;;;5068701;28;20045;-68
2022/12/29 01:01:55;;;;;;;4.43;1.60;;;10.20;83.00;;;;;;5067270;28;20078;-67
2022/12/29 01:04:22;;;;;;;4.78;1.70;;;10.10;83.60;;;;;;5063708;28;20052;-67
2022/12/29 01:06:48;;;;;;;3.33;1.40;;;10.10;83.60;;;;;;5065029;28;20032;-68
2022/12/29 01:11:58;;;;;;;5.20;1.85;;;10.20;83.10;;;;;;5072668;28;20048;-68
2022/12/29 01:14:24;;;;;;;7.18;2.22;;;10.20;83.10;;;;;;5070071;28;20621;-67
2022/12/29 01:16:50;;;;;;;3.65;1.55;;;10.30;82.80;;;;;;5061870;28;20119;-68
2022/12/29 01:19:18;;;;;;;6.68;1.77;;;10.30;82.70;;;;;;5052618;28;20468;-67
2022/12/29 01:21:45;;;;;;;6.15;1.90;;;10.40;82.30;;;;;;5072134;28;20033;-69
2022/12/29 01:24:10;;;;;;;5.95;1.70;;;10.60;81.50;;;;;;5074527;28;20032;-68
2022/12/29 01:26:36;;;;;;;5.85;2.15;;;10.80;81.20;;;;;;5064666;28;20024;-68
2022/12/29 01:29:01;;;;;;;5.18;1.27;;;10.90;80.60;;;;;;5065274;28;20043;-68
2022/12/29 01:31:27;;;;;;;3.40;1.40;;;11.00;80.20;;;;;;5069612;28;20035;-68
2022/12/29 01:33:52;;;;;;;5.97;1.60;;;11.00;80.00;;;;;;5052696;28;20027;-67
2022/12/29 01:36:19;;;;;;;6.53;2.05;;;11.00;80.30;;;;;;5063721;28;20033;-68
2022/12/29 01:38:45;;;;;;;5.43;1.77;;;11.00;80.30;;;;;;5069932;28;20025;-67
2022/12/29 01:41:15;;;;;;;4.03;1.13;;;11.00;79.90;;;;;;5075351;28;20035;-67
2022/12/29 01:43:53;;;;;;;7.97;1.52;;;11.20;79.30;;;;;;5069181;28;20094;-67
2022/12/29 01:46:38;;;;;;;3.22;1.15;;;11.20;79.10;;;;;;5055686;28;20457;-67
2022/12/29 01:49:12;;;;;;;3.45;1.25;;;11.30;78.90;;;;;;5063716;28;20753;-68
2022/12/29 01:51:45;;;;;;;4.53;1.50;;;11.30;78.60;;;;;;5065395;28;20396;-68
2022/12/29 01:54:25;;;;;;;4.90;1.30;;;11.30;78.60;;;;;;5071827;28;20032;-69
2022/12/29 01:56:59;;;;;;;6.15;1.40;;;11.30;78.70;;;;;;5061637;28;20024;-69
2022/12/29 01:59:30;;;;;;;4.90;1.92;;;11.20;78.70;;;;;;5064054;28;20103;-68
2022/12/29 02:01:56;;;;;;;4.13;1.50;;;11.20;78.70;;;;;;5069713;28;20094;-68
2022/12/29 02:04:24;;;;;;;6.00;1.30;;;11.20;78.60;;;;;;5070486;28;20413;-69
2022/12/29 02:06:57;;;;;;;6.25;1.80;;;11.20;78.40;;;;;;5068402;28;20036;-68
2022/12/29 02:09:23;;;;;;;5.93;1.38;;;11.20;78.70;;;;;;5067011;28;20068;-68
2022/12/29 02:11:49;;;;;;;4.43;1.40;;;11.20;78.00;;;;;;5070721;28;20059;-68
2022/12/29 02:14:15;;;;;;;3.20;1.30;;;11.30;78.00;;;;;;5054038;28;20032;-69
2022/12/29 02:17:12;;;;;;;5.38;1.30;;;11.20;78.00;;;;;;5061058;28;20083;-68
2022/12/29 02:20:22;;;;;;;4.50;1.30;;;11.20;77.90;;;;;;5063638;28;20029;-67
2022/12/29 02:23:26;;;;;;;4.20;1.23;;;11.20;77.90;;;;;;5048987;28;20036;-68
2022/12/29 02:26:13;;;;;;;4.40;1.10;;;11.00;78.10;;;;;;5071554;28;20033;-68
2022/12/29 02:28:59;;;;;;;5.15;1.30;;;11.20;77.40;;;;;;5068432;28;20024;-68
2022/12/29 02:31:39;;;;;;;2.97;1.10;;;11.20;77.30;;;;;;5061212;28;20027;-68
2022/12/29 02:34:38;;;;;;;3.10;1.23;;;11.10;77.50;;;;;;5047916;28;20086;-68
2022/12/29 02:37:18;;;;;;;3.88;1.40;;;11.10;77.60;;;;;;5059977;28;20025;-68
2022/12/29 02:40:16;;;;;;;4.75;1.23;;;11.10;77.60;;;;;;5069970;28;20032;-68
2022/12/29 02:42:47;;;;;;;6.80;1.35;;;11.00;78.00;;;;;;5024673;28;20118;-68
2022/12/29 02:45:17;;;;;;;5.93;1.75;;;11.00;78.00;;;;;;5069172;28;20032;-68
2022/12/29 02:47:58;;;;;;;2.97;1.25;;;11.00;78.20;;;;;;5069640;28;20025;-68
2022/12/29 02:50:31;;;;;;;3.72;1.30;;;11.10;77.60;;;;;;5062414;28;20048;-68
2022/12/29 02:53:04;;;;;;;3.20;1.40;;;11.10;77.70;;;;;;5064459;28;20029;-68
2022/12/29 02:55:29;;;;;;;5.35;2.10;;;11.10;77.60;;;;;;5073500;28;20388;-68
2022/12/29 02:58:15;;;;;;;7.00;1.50;;;11.10;77.80;;;;;;5068815;28;20100;-67
2022/12/29 03:00:55;;;;;;;4.82;1.50;;;11.00;77.80;;;;;;5068897;28;20061;-68
2022/12/29 03:03:40;;;;;;;3.80;1.40;;;11.00;78.00;;;;;;5071222;28;20420;-68
2022/12/29 03:06:14;;;;;;;4.43;1.50;;;11.10;77.90;;;;;;5044378;28;20451;-68
2022/12/29 03:08:42;;;;;;;3.95;1.30;;;11.10;78.00;;;;;;5066043;28;20032;-68
2022/12/29 03:17:20;;;;;;;3.67;1.20;;;11.00;78.70;;;;;;5067602;28;20588;-66
2022/12/29 03:19:49;;;;;;;6.47;1.60;;;10.90;78.90;;;;;;5062126;28;20387;-67
2022/12/29 03:22:30;;;;;;;8.80;1.83;;;10.90;79.40;;;;;;5067978;28;20031;-66
2022/12/29 03:25:10;;;;;;;3.00;1.33;;;10.80;79.70;;;;;;5064173;28;20035;-67
2022/12/29 03:27:40;;;;;;;6.65;1.90;;;10.80;79.70;;;;;;5060138;28;20199;-69
2022/12/29 03:30:08;;;;;;;4.32;1.40;;;10.80;80.00;;;;;;5067583;28;20028;-67
2022/12/29 03:32:40;;;;;;;5.97;1.63;;;10.80;80.20;;;;;;5071197;28;20025;-68
2022/12/29 03:35:10;;;;;;;5.20;1.55;;;10.80;80.60;;;;;;5068515;28;20425;-68
2022/12/29 03:37:43;;;;;;;4.80;1.48;;;10.70;80.70;;;;;;5054159;28;20031;-68
2022/12/29 03:40:09;;;;;;;5.40;1.60;;;10.70;80.90;;;;;;5072070;28;20032;-68
2022/12/29 03:42:36;;;;;;;5.90;1.67;;;10.70;81.00;;;;;;5074122;28;20028;-68
2022/12/29 03:45:06;;;;;;;5.00;1.90;;;10.70;81.10;;;;;;5055870;28;20021;-67
2022/12/29 03:47:31;;;;;;;4.22;1.60;;;10.60;81.30;;;;;;5073995;28;20310;-66
2022/12/29 03:49:57;;;;;;;7.40;1.73;;;10.60;81.60;;;;;;5063460;28;20296;-67
2022/12/29 03:52:22;;;;;;;4.22;1.60;;;10.50;81.80;;;;;;5068932;28;20414;-67
2022/12/29 03:54:48;;;;;;;4.90;2.00;;;10.60;81.80;;;;;;5069139;28;20036;-68
2022/12/29 03:57:13;;;;;;;10.85;1.98;;;10.70;81.60;;;;;;5065102;28;20116;-67
2022/12/29 03:59:39;;;;;;;4.55;1.35;;;10.70;81.50;;;;;;5073822;28;20311;-67
2022/12/29 04:02:04;;;;;;;6.03;1.95;;;10.70;81.80;;;;;;5066783;28;20413;-67
2022/12/29 04:04:30;;;;;;;4.47;1.40;;;10.50;81.90;;;;;;5073147;28;20074;-67
2022/12/29 04:06:59;;;;;;;8.88;2.28;;;10.50;82.30;;;;;;5069723;28;20036;-68
2022/12/29 04:09:24;;;;;;;5.13;1.58;;;10.50;82.10;;;;;;5075636;28;20025;-67
2022/12/29 04:11:50;;;;;;;4.55;1.50;;;10.50;82.20;;;;;;5072425;28;20400;-67
2022/12/29 04:14:15;;;;;;;4.97;1.48;;;10.30;82.70;;;;;;5067738;28;20024;-68
2022/12/29 04:16:41;;;;;;;5.18;1.55;;;10.40;82.60;;;;;;5070685;28;20816;-68
2022/12/29 04:19:07;;;;;;;3.63;1.60;;;10.40;82.50;;;;;;5063267;28;20737;-67
2022/12/29 04:21:33;;;;;;;8.55;2.25;;;10.60;81.90;;;;;;5067974;28;20086;-68
2022/12/29 04:23:59;;;;;;;5.82;1.63;;;10.60;81.90;;;;;;5077674;28;20025;-68
2022/12/29 04:26:25;;;;;;;4.13;1.67;;;10.60;81.90;;;;;;5052847;28;20024;-67
2022/12/29 04:28:50;;;;;;;6.15;1.80;;;10.70;81.20;;;;;;5073348;28;20082;-68
2022/12/29 04:31:16;;;;;;;6.00;1.92;;;10.90;80.90;;;;;;5073557;28;20453;-67
2022/12/29 04:33:41;;;;;;;4.43;1.60;;;10.90;80.90;;;;;;5075842;28;20432;-66
2022/12/29 04:36:07;;;;;;;5.80;1.63;;;10.90;80.70;;;;;;5074638;28;20028;-66
2022/12/29 04:38:33;;;;;;;7.07;1.95;;;10.90;80.80;;;;;;5076498;28;20120;-66
2022/12/29 04:41:02;;;;;;;4.60;1.73;;;10.80;81.00;;;;;;5075945;28;20386;-66
2022/12/29 04:43:28;;;;;;;4.15;1.75;;;10.80;81.10;;;;;;5070644;28;20378;-68
2022/12/29 04:45:54;;;;;;;5.65;1.60;;;10.80;81.50;;;;;;5077163;28;20020;-68
2022/12/29 04:48:20;;;;;;;9.32;1.73;;;10.70;81.70;;;;;;5071388;28;20413;-68
2022/12/29 04:50:48;;;;;;;4.43;1.95;;;10.70;81.90;;;;;;5041544;28;20033;-67
2022/12/29 04:53:14;;;;;;;5.22;1.50;;;10.60;82.10;;;;;;5047400;28;20024;-67
2022/12/29 04:55:40;;;;;;;4.85;1.63;;;10.50;82.20;;;;;;5064943;28;20043;-68
2022/12/29 04:58:06;;;;;;;4.68;1.63;;;10.50;82.10;;;;;;5066160;28;20045;-67
2022/12/29 05:00:34;;;;;;;5.40;1.60;;;10.40;82.10;;;;;;5067908;28;20095;-68
2022/12/29 05:03:00;;;;;;;4.72;1.63;;;10.50;81.90;;;;;;5074888;28;20090;-68
2022/12/29 05:05:25;;;;;;;5.50;1.58;;;10.50;82.10;;;;;;5071655;28;20033;-67
2022/12/29 05:07:51;;;;;;;3.88;1.60;;;10.40;82.10;;;;;;5068994;28;20028;-68
2022/12/29 05:10:17;;;;;;;6.32;2.00;;;10.50;81.90;;;;;;5053289;28;20036;-67
2022/12/29 05:12:43;;;;;;;8.27;1.98;;;10.60;81.70;;;;;;5065879;28;20433;-67
2022/12/29 05:15:10;;;;;;;7.25;1.98;;;10.70;81.50;;;;;;5068976;28;20024;-67
2022/12/29 05:17:36;;;;;;;3.25;1.52;;;10.70;81.70;;;;;;5068554;28;20016;-66
2022/12/29 05:20:03;;;;;;;3.70;1.42;;;10.60;81.90;;;;;;5047640;28;20028;-67
2022/12/29 05:22:29;;;;;;;3.22;1.40;;;10.60;82.00;;;;;;5066510;28;20420;-67
2022/12/29 05:24:54;;;;;;;3.38;1.42;;;10.70;82.20;;;;;;5071021;28;20032;-67
2022/12/29 05:27:20;;;;;;;5.70;1.52;;;10.70;82.60;;;;;;5068069;28;20487;-67
2022/12/29 05:29:45;;;;;;;4.63;1.65;;;10.70;82.70;;;;;;5074624;28;20745;-67
2022/12/29 05:32:11;;;;;;;4.55;1.48;;;10.80;82.70;;;;;;5072168;28;20016;-67
2022/12/29 05:34:36;;;;;;;3.28;1.65;;;10.70;83.10;;;;;;5059412;28;20020;-67
2022/12/29 05:37:02;;;;;;;4.22;1.88;;;10.60;83.90;;;;;;5069386;28;20028;-67
2022/12/29 05:39:28;;;;;;;3.70;1.60;;;10.50;84.00;;;;;;5073291;28;20037;-67
2022/12/29 05:41:54;;;;;;;4.95;1.88;;;10.40;84.50;;;;;;5072244;28;20051;-67
2022/12/29 05:44:20;;;;;;;3.58;1.50;;;10.40;85.00;;;;;;5075322;28;20020;-67
2022/12/29 05:46:45;;;;;;;5.53;1.65;;;10.50;84.80;;;;;;5074615;28;20031;-67
2022/12/29 05:49:11;;;;;;;4.60;1.50;;;10.50;84.80;;;;;;5075559;28;20824;-66
2022/12/29 05:51:37;;;;;;;7.85;1.65;;;10.60;84.70;;;;;;5074210;28;20029;-67
2022/12/29 05:54:02;;;;;;;3.67;1.50;;;10.60;84.70;;;;;;5066665;28;20028;-67
2022/12/29 05:56:28;;;;;;;4.32;1.40;;;10.70;84.60;;;;;;5050520;28;20039;-67
2022/12/29 05:58:53;;;;;;;4.70;1.85;;;10.80;84.70;;;;;;5036272;28;20072;-67
2022/12/29 06:01:19;;;;;;;6.68;2.00;;;10.80;84.70;;;;;;5045382;28;20029;-67
2022/12/29 06:03:44;;;;;;;4.45;1.50;;;10.90;84.60;;;;;;5065926;28;20040;-67
2022/12/29 06:06:10;;;;;;;4.95;1.80;;;10.80;84.70;;;;;;5051668;28;20033;-68
2022/12/29 06:08:35;;;;;;;5.65;1.95;;;10.80;84.60;;;;;;5066706;28;20025;-67
2022/12/29 06:11:01;;;;;;;7.90;2.00;;;10.90;84.60;;;;;;5060022;28;20033;-68
2022/12/29 06:13:27;;;;;;;5.32;1.60;;;10.90;84.50;;;;;;5066832;28;20078;-66
2022/12/29 06:15:53;;;;;;;8.75;1.80;;;10.80;84.70;;;;;;5068845;28;20032;-67
2022/12/29 06:18:19;;;;;;;3.38;1.45;;;10.80;84.80;;;;;;5065638;28;20032;-67
2022/12/29 06:20:44;;;;;;;4.47;1.50;;;10.70;85.50;;;;;;5069702;28;20329;-67
2022/12/29 06:23:11;;;;;;;4.20;1.50;;;10.60;85.50;;;;;;5068377;28;20089;-67
2022/12/29 06:25:37;;;;;;;3.58;1.70;;;10.60;85.50;;;;;;5070313;28;20024;-67
2022/12/29 06:28:03;;;;;;;5.75;1.50;;;10.50;85.80;;;;;;5067108;28;20035;-67
2022/12/29 06:30:29;;;;;;;5.38;1.67;;;10.50;85.70;;;;;;5068975;28;20052;-67
2022/12/29 06:32:54;;;;;;;3.72;1.60;;;10.50;86.00;;;;;;5067208;28;20366;-67
2022/12/29 06:35:22;;;;;;;3.28;1.40;;;10.50;86.10;;;;;;5065181;28;20021;-67
2022/12/29 06:37:48;;;;;;;4.65;1.70;;;10.40;86.10;;;;;;5067543;28;20066;-68
2022/12/29 06:40:13;;;;;;;4.72;1.73;;;10.40;86.40;;;;;;5074366;28;20372;-68
2022/12/29 06:42:39;;;;;;;5.22;1.60;;;10.40;86.50;;;;;;5073368;28;20036;-68
2022/12/29 06:45:05;;;;;;;6.13;1.92;;;10.30;86.60;;;;;;5070723;28;20313;-67
2022/12/29 06:47:30;;;;;;;4.65;1.67;;;10.30;86.60;;;;;;5069613;28;20317;-68
2022/12/29 06:49:56;;;;;;;3.90;1.60;;;10.10;87.10;;;;;;5071751;28;20036;-68
2022/12/29 06:52:23;;;;;;;4.55;1.65;;;10.00;87.70;;;;;;5066743;28;20029;-68
2022/12/29 06:54:49;;;;;;;4.07;1.48;;;10.00;87.80;;;;;;5064753;28;20166;-67
2022/12/29 06:57:15;;;;;;;4.63;1.98;;;10.10;87.60;;;;;;5072239;28;20103;-68
2022/12/29 06:59:40;;;;;;;4.22;1.70;;;10.20;87.20;;;;;;5073396;28;20040;-67
2022/12/29 07:02:06;;;;;;;4.32;1.40;;;10.20;87.20;;;;;;5074274;28;20036;-68
2022/12/29 07:04:31;;;;;;;3.72;1.77;;;10.30;87.00;;;;;;5070800;28;20024;-68
2022/12/29 07:06:57;;;;;;;5.68;1.80;;;10.40;86.80;;;;;;5070783;28;20032;-67
2022/12/29 07:09:22;;;;;;;4.13;1.70;;;10.30;87.20;;;;;;5072672;28;20056;-67
2022/12/29 07:11:48;;;;;;;6.47;1.60;;;10.40;86.80;;;;;;5074253;28;20028;-67
2022/12/29 07:14:13;;;;;;;2.92;1.50;;;10.40;86.90;;;;;;5073145;28;20021;-67
2022/12/29 07:16:39;;;;;;;2.60;1.40;;;10.40;87.20;;;;;;5071438;28;20027;-67
2022/12/29 07:19:07;;;;;;;6.53;1.75;;;10.50;87.00;;;;;;5072451;28;20040;-68
2022/12/29 07:21:33;;;;;;;4.15;1.73;;;10.50;87.10;;;;;;5073843;28;20020;-67
2022/12/29 07:23:58;;;;;;;4.47;1.50;;;10.40;87.10;;;;;;5073998;28;20078;-67
2022/12/29 07:26:24;;;;;;;5.63;1.65;;;10.40;87.20;;;;;;5071793;28;20466;-67
2022/12/29 07:28:49;;;;;;;3.80;1.50;;;10.40;87.20;;;;;;5074554;28;20434;-67
2022/12/29 07:31:21;;;;;;;4.93;1.52;;;10.40;87.40;;;;;;5072046;28;20024;-67
2022/12/29 07:33:47;;;;;;;3.85;1.50;;;10.30;87.80;;;;;;5074298;28;20313;-67
2022/12/29 07:36:14;;;;;;;3.95;1.40;;;10.30;87.50;;;;;;5068855;28;20298;-66
2022/12/29 07:38:40;;;;;;;4.25;1.52;;;10.50;87.10;;;;;;5055383;28;20044;-68
2022/12/29 07:41:06;;;;;;;4.20;1.42;;;10.50;87.00;;;;;;5072272;28;20029;-69
2022/12/29 07:43:31;;;;;;;5.85;1.40;;;10.50;87.00;;;;;;5056084;28;20082;-68
2022/12/29 07:45:57;;;;;;;4.28;1.73;;;10.50;87.00;;;;;;5070972;28;20368;-68
2022/12/29 07:48:22;;;;;;;3.03;1.58;;;10.50;86.70;;;;;;5074431;28;20028;-69
2022/12/29 07:50:48;;;;;;;3.90;1.38;;;10.50;86.50;;;;;;5071790;28;20031;-68
2022/12/29 07:53:14;;;;;;;2.60;1.30;;;10.60;86.40;;;;;;5075304;28;20035;-68
2022/12/29 07:55:40;;;;;;;4.18;1.60;;;10.60;86.00;;;;;;5072729;28;20024;-68
2022/12/29 07:58:06;;;;;;;5.75;1.80;;;10.70;86.00;;;;;;5071844;28;20025;-68
2022/12/29 08:00:35;;;;;;;7.30;1.85;;;10.80;85.00;;;;;;5071293;28;20430;-68
2022/12/29 08:03:00;;;;;;;4.28;1.52;;;10.90;84.40;;;;;;5063692;28;20352;-68
2022/12/29 08:05:26;;;;;;;3.17;1.50;;;11.00;84.00;;;;;;5064971;28;20078;-68
2022/12/29 08:07:51;;;;;;;5.07;1.85;;;11.10;83.60;;;;;;5073876;28;20094;-68
2022/12/29 08:10:17;;;;;;;5.13;1.60;;;11.10;83.60;;;;;;5071042;28;20040;-68
2022/12/29 08:12:43;;;;;;;3.28;1.50;;;11.10;83.70;;;;;;5075187;28;20020;-68
2022/12/29 08:15:11;;;;;;;3.63;1.55;;;11.10;83.70;;;;;;5068530;28;20569;-68
2022/12/29 08:17:36;;;;;;;5.15;1.73;;;11.10;83.50;;;;;;5077793;28;20099;-68
2022/12/29 08:20:03;;;;;;;4.05;1.70;;;11.20;83.10;;;;;;5075979;28;20103;-68
2022/12/29 08:22:28;;;;;;;4.25;1.60;;;11.20;83.10;;;;;;5077924;28;20025;-68
2022/12/29 08:24:54;;;;;;;4.03;1.63;;;11.20;83.00;;;;;;5076178;28;20033;-68
2022/12/29 08:27:20;;;;;;;2.97;1.20;;;11.20;83.20;;;;;;5055991;28;20036;-68
2022/12/29 08:29:45;;;;;;;3.70;1.58;;;11.30;82.20;;;;;;5076587;28;20044;-68
2022/12/29 08:32:11;;;;;;;6.13;1.67;;;11.40;82.40;;;;;;5055745;28;20111;-68
2022/12/29 08:34:37;;;;;;;6.45;1.40;;;11.30;82.70;;;;;;5077417;28;20442;-68
2022/12/29 08:37:02;;;;;;;4.05;1.40;;;11.40;82.50;;;;;;5072553;28;20025;-68
2022/12/29 08:39:28;;;;;;;4.13;1.42;;;11.40;82.30;;;;;;5075372;28;20028;-68
2022/12/29 08:41:54;;;;;;;3.40;1.50;;;11.40;82.70;;;;;;5077756;28;20529;-68
2022/12/29 08:44:20;;;;;;;5.43;1.67;;;11.40;82.50;;;;;;5076738;28;20040;-68
2022/12/29 08:46:45;;;;;;;4.97;1.38;;;11.30;83.20;;;;;;5074160;28;20317;-68
2022/12/29 08:49:11;;;;;;;5.53;2.15;;;11.40;82.60;;;;;;5074119;28;20098;-68
2022/12/29 08:51:36;;;;;;;6.18;1.60;;;11.40;82.90;;;;;;5074320;28;20085;-68
2022/12/29 08:54:02;;;;;;;3.55;1.58;;;11.40;82.90;;;;;;5075723;28;20111;-68
2022/12/29 08:56:28;;;;;;;5.55;1.50;;;11.30;83.90;;;;;;5073461;28;20046;-68
2022/12/29 08:58:53;;;;;;;4.00;1.75;;;11.30;84.00;;;;;;5076184;28;20044;-69
2022/12/29 09:01:20;;;;;;;3.85;1.50;;;11.30;84.00;;;;;;5071911;28;20044;-68
2022/12/29 09:03:46;;;;;;;5.60;1.50;;;11.20;84.40;;;;;;5067704;28;20155;-68
2022/12/29 09:06:12;;;;;;;4.63;1.50;;;11.20;85.20;;;;;;5071801;28;20024;-68
2022/12/29 09:08:37;;;;;;;3.28;1.52;;;11.20;85.10;;;;;;5074591;28;20028;-68
2022/12/29 09:11:12;;;;;;;4.40;1.73;;;11.30;85.20;;;;;;5075128;28;20029;-68
2022/12/29 09:13:37;;;;;;;5.47;1.70;;;11.30;85.50;;;;;;5075389;28;20332;-68
2022/12/29 09:16:03;;;;;;;4.35;1.70;;;11.20;86.10;;;;;;5073950;28;20174;-68
2022/12/29 09:18:32;;;;;;;4.93;1.65;;;11.10;86.40;;;;;;5074827;28;20016;-68
2022/12/29 09:21:03;;;;;;;4.05;1.63;;;11.00;87.20;;;;;;5074476;28;20032;-68
2022/12/29 09:23:29;;;;;;;5.18;1.50;;;11.00;87.10;;;;;;5073932;28;20346;-68
2022/12/29 09:25:55;;;;;;;5.97;1.85;;;10.90;86.90;;;;;;5058456;28;20033;-68
2022/12/29 09:28:21;;;;;;;4.65;1.83;;;10.90;86.90;;;;;;5070462;28;20448;-68
2022/12/29 09:30:47;;;;;;;4.97;1.80;;;10.90;87.30;;;;;;5076596;28;20028;-68
2022/12/29 09:33:13;;;;;;;4.53;2.25;;;10.90;87.50;;;;;;5075113;28;20032;-68
2022/12/29 09:35:43;;;;;;;4.97;1.80;;;10.80;87.50;;;;;;5074272;28;20092;-68
2022/12/29 09:38:08;;;;;;;5.35;1.77;;;10.80;87.70;;;;;;5075854;28;20471;-68
2022/12/29 09:40:34;;;;;;;4.93;1.63;;;10.80;87.80;;;;;;5074689;28;20045;-68
2022/12/29 09:43:19;;;;;;;5.25;1.67;;;10.80;87.70;;;;;;5075084;28;20045;-68
2022/12/29 09:45:55;;;;;;;;;;;10.80;88.10;;;;;;5075041;28;20429;-68
2022/12/29 09:48:27;;;;;;;5.00;2.00;;;10.90;87.80;;;;;;5059354;28;20305;-68
2022/12/29 09:51:00;;;;;;;4.80;2.00;;;11.00;87.70;;;;;;5071709;28;20024;-68
2022/12/29 09:53:49;;;;;;;5.70;1.50;;;11.10;87.40;;;;;;5073331;28;20020;-68
2022/12/29 09:56:18;;;;;;;5.18;1.80;;;11.10;87.20;;;;;;5056709;28;20032;-68
2022/12/29 09:58:43;;;;;;;5.30;1.75;;;11.20;87.00;;;;;;5076548;28;20080;-68
2022/12/29 10:01:28;;;;;;;3.42;1.30;;;11.30;86.80;;;;;;5071825;28;20059;-68
2022/12/29 10:03:57;;;;;;;6.88;1.40;;;11.30;86.80;;;;;;5069936;28;20020;-68
2022/12/29 10:06:33;;;;;;;2.92;1.40;;;11.40;86.40;;;;;;5074005;28;20024;-68
2022/12/29 10:09:06;;;;;;;3.95;1.48;;;11.40;86.60;;;;;;5075489;28;20019;-68
2022/12/29 10:12:08;;;;;;;4.22;1.30;;;11.40;86.70;;;;;;5069263;28;20020;-68
2022/12/29 10:15:09;;;;;;;4.30;1.45;;;11.40;86.60;;;;;;5075643;28;20368;-68
2022/12/29 10:17:51;;;;;;;4.63;1.50;;;11.30;87.00;;;;;;5061057;28;20077;-68
2022/12/29 10:20:32;;;;;;;3.97;1.30;;;11.30;87.20;;;;;;5066000;28;20025;-68
2022/12/29 10:23:03;;;;;;;2.65;1.20;;;11.30;87.50;;;;;;5076056;28;20032;-67
2022/12/29 10:25:35;;;;;;;4.03;1.50;;;11.30;87.60;;;;;;5057119;28;20392;-67
2022/12/29 10:28:04;;;;;;;3.22;1.42;;;11.30;87.80;;;;;;5066453;28;20306;-67
2022/12/29 10:30:34;;;;;;;4.82;1.60;;;11.30;88.10;;;;;;5075967;28;20028;-67
2022/12/29 10:33:04;;;;;;;4.97;1.55;;;11.30;88.00;;;;;;5075798;28;20020;-70
2022/12/29 10:35:37;;;;;;;5.18;1.52;;;11.20;88.50;;;;;;5074717;28;20024;-68
2022/12/29 10:38:20;;;;;;;4.70;1.63;;;11.20;88.80;;;;;;5075516;28;20097;-69
2022/12/29 10:41:02;;;;;;;4.88;2.00;;;11.10;89.20;;;;;;5074048;28;20024;-69
2022/12/29 10:43:42;;;;;;;5.93;1.80;;;11.10;89.50;;;;;;5056111;28;20087;-68
2022/12/29 10:46:16;;;;;;;3.90;1.35;;;11.10;89.40;;;;;;5070995;28;20032;-67
2022/12/29 10:48:45;;;;;;;3.80;1.40;;;11.10;89.60;;;;;;5074971;28;20408;-68
2022/12/29 10:51:30;;;;;;;4.88;1.48;;;11.10;89.50;;;;;;5073746;28;20449;-68
2022/12/29 10:54:02;;;;;;;4.45;1.40;;;11.20;89.50;;;;;;5070749;28;20112;-68
2022/12/29 10:56:44;;;;;;;4.95;1.60;;;11.20;89.60;;;;;;5057446;28;20021;-69
2022/12/29 10:59:33;;;;;;;3.63;1.55;;;11.20;89.20;;;;;;5069512;28;20036;-69
2022/12/29 11:02:04;;;;;;;4.75;1.50;;;11.20;89.50;;;;;;5060510;28;20036;-67
2022/12/29 11:04:42;;;;;;;4.82;1.70;;;11.20;89.50;;;;;;5073512;28;20342;-68
2022/12/29 11:07:11;;;;;;;4.07;1.77;;;11.20;89.80;;;;;;5074291;28;20130;-68
2022/12/29 11:09:40;;;;;;;4.53;1.60;;;11.30;90.60;;;;;;5068524;28;20413;-68
2022/12/29 11:12:29;;;;;;;4.88;1.60;;;10.90;93.00;;;;;;5075563;28;20029;-68
2022/12/29 11:15:09;;;;;;;3.35;1.58;;;10.60;95.00;;;;;;5071555;28;20086;-68
2022/12/29 11:17:52;;;;;;;5.72;1.90;;;10.40;96.00;;;;;;5042532;28;20032;-68
2022/12/29 11:20:38;;;;;;;6.53;1.63;;;10.30;96.70;;;;;;5060874;28;20033;-68
2022/12/29 11:23:19;;;;;;;7.13;2.90;;;10.30;97.00;;;;;;5073930;28;20024;-68
2022/12/29 11:25:45;;;;;;;5.90;2.78;;;10.10;97.60;;;;;;5073875;28;20037;-68
2022/12/29 11:28:17;;;;;;;4.28;1.58;;;10.00;98.00;;;;;;5073673;28;20035;-68
2022/12/29 11:30:43;;;;;;;5.60;2.20;;;9.90;98.00;;;;;;5075650;28;20460;-67
2022/12/29 11:33:09;;;;;;;5.32;1.85;;;10.00;98.00;;;;;;5052375;28;20035;-68
2022/12/29 11:35:36;;;;;;;3.17;1.30;;;10.10;98.00;;;;;;5070982;28;20033;-68
2022/12/29 11:38:03;;;;;;;6.25;2.63;;;10.50;96.60;;;;;;5068753;28;20052;-68
2022/12/29 11:40:30;;;;;;;3.65;1.77;;;10.60;96.60;;;;;;5073488;28;20036;-69
2022/12/29 11:42:59;;;;;;;3.20;1.35;;;10.70;96.20;;;;;;5071591;28;20090;-68
2022/12/29 11:45:28;;;;;;;4.38;1.75;;;10.80;95.10;;;;;;5073696;28;20016;-68
2022/12/29 11:47:58;;;;;;;3.85;1.58;;;10.90;94.50;;;;;;5072668;28;20031;-67
2022/12/29 11:50:30;;;;;;;5.47;2.10;;;10.80;93.80;;;;;;5074231;28;20029;-68
2022/12/29 11:53:04;;;;;;;4.32;1.52;;;10.80;93.80;;;;;;5078307;28;20086;-68
2022/12/29 11:55:30;;;;;;;5.63;2.10;;;10.90;93.20;;;;;;5078105;28;20112;-68
2022/12/29 11:58:01;;;;;;;5.47;2.45;;;10.90;93.30;;;;;;5076886;28;20563;-68
2022/12/29 12:00:31;;;;;;;3.50;1.50;;;11.00;93.50;;;;;;5078010;28;20040;-67
2022/12/29 12:03:04;;;;;;;4.80;1.85;;;11.00;93.00;;;;;;5077264;28;20039;-68
2022/12/29 12:05:52;;;;;;;4.10;1.70;;;11.00;93.70;;;;;;5077037;28;20310;-68
2022/12/29 12:08:41;;;;;;;6.75;1.83;;;10.80;94.50;;;;;;5074498;28;20028;-68
2022/12/29 12:11:41;;;;;;;5.97;2.20;;;10.60;95.60;;;;;;5074457;28;20725;-68
2022/12/29 12:14:23;;;;;;;5.97;2.00;;;10.50;96.00;;;;;;5077636;28;20036;-67
2022/12/29 12:16:56;;;;;;;5.07;1.88;;;10.40;97.30;;;;;;5077616;28;20028;-67
2022/12/29 12:19:48;;;;;;;4.25;1.80;;;10.30;97.80;;;;;;5074596;28;20040;-66
2022/12/29 12:22:32;;;;;;;6.10;2.20;;;10.40;97.80;;;;;;5074869;28;20028;-67
2022/12/29 12:25:02;;;;;;;;;;;10.80;97.70;;;;;;5076106;28;20060;-68
2022/12/29 12:27:48;;;;;;;4.68;1.70;;;11.40;95.40;;;;;;5075571;28;19919;-67
2022/12/29 12:30:19;;;;;;;5.88;1.80;;;11.40;94.60;;;;;;5049528;28;20048;-67
2022/12/29 12:32:58;;;;;;;3.92;1.60;;;11.30;94.80;;;;;;5077199;28;20108;-68
2022/12/29 12:36:16;;;;;;;6.40;1.67;;;11.00;94.70;;;;;;5054695;28;20028;-68
2022/12/29 12:39:04;;;;;;;4.10;1.58;;;10.90;94.80;;;;;;5076753;28;20425;-68
2022/12/29 12:42:13;;;;;;;5.05;1.73;;;10.70;94.80;;;;;;5059290;28;20107;-68
2022/12/29 12:45:17;;;;;;;4.78;1.77;;;10.60;95.40;;;;;;5040382;28;20440;-68
2022/12/29 12:48:05;;;;;;;5.47;2.38;;;10.30;97.60;;;;;;4958377;29;20515;-68
2022/12/29 12:50:36;;;;;;;5.85;2.65;;;10.10;98.00;;;;;;5060987;28;20053;-68
2022/12/29 12:53:12;;;;;;;11.52;2.85;;;9.90;98.00;;;;;;5076640;28;20025;-68
2022/12/29 12:55:46;;;;;;;5.82;2.03;;;9.70;98.00;;;;;;5076951;28;20031;-68
2022/12/29 12:58:29;;;;;;;;;;;9.60;98.00;;;;;;5055553;28;20495;-69
2022/12/29 13:01:13;;;;;;;7.28;2.47;;;9.40;98.00;;;;;;5069278;28;19912;-69
2022/12/29 13:03:52;;;;;;;5.00;2.78;;;9.10;97.10;;;;;;5042128;28;20029;-69
2022/12/29 13:06:42;;;;;;;5.80;2.83;;;9.00;95.30;;;;;;5058035;28;20024;-69
2022/12/29 13:09:17;;;;;;;6.15;2.78;;;8.90;94.00;;;;;;5040159;28;20086;-69
2022/12/29 13:12:06;;;;;;;4.90;2.30;;;8.80;93.60;;;;;;5077040;28;20025;-68
2022/12/29 13:14:48;;;;;;;4.88;2.55;;;8.90;96.60;;;;;;5077757;28;20028;-68
2022/12/29 13:17:44;;;;;;;4.47;2.17;;;9.00;94.60;;;;;;5068475;28;20421;-67
2022/12/29 13:20:31;;;;;;;5.65;2.35;;;9.00;97.20;;;;;;5062810;28;20051;-67
2022/12/29 13:23:01;;;;;;;4.75;2.20;;;9.20;98.00;;;;;;5061790;28;20325;-67
2022/12/29 13:25:36;;;;;;;4.35;1.92;;;9.30;98.00;;;;;;5077576;28;20107;-67
2022/12/29 13:28:23;;;;;;;4.45;1.77;;;9.30;98.00;;;;;;5077532;28;20443;-69
2022/12/29 13:31:08;;;;;;;3.63;1.88;;;9.30;98.00;;;;;;5068788;28;20060;-70
2022/12/29 13:33:55;;;;;;;5.60;2.30;;;9.40;98.00;;;;;;5057465;28;20025;-68
2022/12/29 13:36:30;;;;;;;7.82;2.90;;;9.40;98.00;;;;;;5039512;28;20116;-68
2022/12/29 13:39:16;;;;;;;4.53;2.00;;;9.60;98.00;;;;;;5057282;28;20076;-68
2022/12/29 13:42:03;;;;;;;4.68;1.95;;;9.70;98.00;;;;;;5075834;28;20028;-68